createdAt,value
2017-12-19T00:02:17.597Z,19.88
2017-12-19T00:04:45.905Z,19.86
2017-12-19T00:07:14.193Z,19.84
2017-12-19T00:09:42.464Z,19.84
2017-12-19T00:12:10.757Z,19.83
2017-12-19T00:14:39.052Z,19.82
2017-12-19T00:17:07.398Z,19.83
2017-12-19T00:19:35.669Z,19.79
2017-12-19T00:22:03.998Z,19.84
2017-12-19T00:24:32.354Z,19.85
2017-12-19T00:27:00.644Z,19.87
2017-12-19T00:29:28.910Z,19.85
2017-12-19T00:31:57.224Z,19.88
2017-12-19T00:34:25.506Z,19.86
2017-12-19T00:36:53.823Z,19.89
2017-12-19T00:39:22.105Z,19.86
2017-12-19T00:41:50.398Z,19.84
2017-12-19T00:44:18.688Z,19.85
2017-12-19T00:46:47.113Z,19.86
2017-12-19T00:49:15.382Z,19.84
2017-12-19T00:51:43.685Z,19.81
2017-12-19T00:54:12.068Z,19.82
2017-12-19T00:56:40.367Z,19.82
2017-12-19T00:59:08.650Z,19.83
2017-12-19T01:01:37.129Z,19.84
2017-12-19T01:04:05.402Z,19.82
2017-12-19T01:06:33.700Z,19.81
2017-12-19T01:09:01.958Z,19.79
2017-12-19T01:11:30.258Z,19.80
2017-12-19T01:13:58.661Z,19.82
2017-12-19T01:16:27.102Z,19.82
2017-12-19T01:18:55.397Z,19.81
2017-12-19T01:21:23.696Z,19.79
2017-12-19T01:23:51.965Z,19.81
2017-12-19T01:26:20.248Z,19.80
2017-12-19T01:28:48.526Z,19.80
2017-12-19T01:31:16.825Z,19.78
2017-12-19T01:33:45.120Z,19.77
2017-12-19T01:36:13.407Z,19.75
2017-12-19T01:38:41.670Z,19.77
2017-12-19T01:41:09.947Z,19.75
2017-12-19T01:43:38.235Z,19.74
2017-12-19T01:46:06.524Z,19.72
2017-12-19T01:48:34.864Z,19.73
2017-12-19T01:51:03.900Z,19.74
2017-12-19T01:53:32.148Z,19.74
2017-12-19T01:56:00.614Z,19.73
2017-12-19T01:58:28.894Z,19.75
2017-12-19T02:00:57.204Z,19.75
2017-12-19T02:03:25.485Z,19.75
2017-12-19T02:05:53.764Z,19.74
2017-12-19T02:08:22.004Z,19.72
2017-12-19T02:10:50.264Z,19.71
2017-12-19T02:13:18.521Z,19.71
2017-12-19T02:15:46.824Z,19.68
2017-12-19T02:18:15.261Z,19.68
2017-12-19T02:20:43.525Z,19.66
2017-12-19T02:23:11.766Z,19.65
2017-12-19T02:25:40.374Z,19.65
2017-12-19T02:28:08.621Z,19.66
2017-12-19T02:30:40.537Z,19.65
2017-12-19T02:33:08.873Z,19.65
2017-12-19T02:35:37.221Z,19.66
2017-12-19T02:38:05.502Z,19.65
2017-12-19T02:40:33.769Z,19.63
2017-12-19T02:43:10.971Z,19.61
2017-12-19T02:45:39.273Z,19.69
2017-12-19T02:48:07.584Z,19.81
2017-12-19T02:50:36.009Z,19.93
2017-12-19T02:53:04.288Z,19.96
2017-12-19T02:55:32.938Z,19.94
2017-12-19T02:58:01.169Z,19.95
2017-12-19T03:00:29.538Z,19.95
2017-12-19T03:02:57.993Z,19.97
2017-12-19T03:05:26.341Z,19.98
2017-12-19T03:07:54.605Z,19.96
2017-12-19T03:10:22.961Z,19.82
2017-12-19T03:12:51.561Z,19.79
2017-12-19T03:15:19.888Z,19.80
2017-12-19T03:17:48.426Z,19.83
2017-12-19T03:20:16.857Z,19.80
2017-12-19T03:22:45.138Z,19.87
2017-12-19T03:25:13.741Z,19.87
2017-12-19T03:27:42.426Z,19.86
2017-12-19T03:30:10.977Z,19.81
2017-12-19T03:32:39.412Z,19.87
2017-12-19T03:35:14.013Z,19.92
2017-12-19T03:37:42.297Z,19.91
2017-12-19T03:40:10.581Z,19.92
2017-12-19T03:42:39.020Z,19.86
2017-12-19T03:45:07.374Z,19.88
2017-12-19T03:47:35.778Z,19.89
2017-12-19T03:50:04.100Z,19.86
2017-12-19T03:52:32.569Z,19.89
2017-12-19T03:55:00.800Z,19.84
2017-12-19T03:57:29.121Z,19.84
2017-12-19T03:59:57.385Z,19.81
2017-12-19T04:02:26.985Z,19.80
2017-12-19T04:04:55.297Z,19.80
2017-12-19T04:07:23.619Z,19.79
2017-12-19T04:09:51.901Z,19.78
2017-12-19T04:12:20.278Z,19.81
2017-12-19T04:14:48.540Z,19.80
2017-12-19T04:17:16.845Z,19.78
2017-12-19T04:19:45.180Z,19.71
2017-12-19T04:22:13.521Z,19.72
2017-12-19T04:24:41.806Z,19.72
2017-12-19T04:27:10.137Z,19.70
2017-12-19T04:29:38.468Z,19.69
2017-12-19T04:32:06.789Z,19.66
2017-12-19T04:34:35.041Z,19.66
2017-12-19T04:37:03.394Z,19.66
2017-12-19T04:39:31.704Z,19.64
2017-12-19T04:42:00.007Z,19.66
2017-12-19T04:44:28.257Z,19.66
2017-12-19T04:46:56.597Z,19.64
2017-12-19T04:49:24.897Z,19.63
2017-12-19T04:51:54.142Z,19.65
2017-12-19T04:54:24.262Z,19.63
2017-12-19T04:56:52.614Z,19.62
2017-12-19T04:59:21.270Z,19.60
2017-12-19T05:04:47.932Z,19.59
2017-12-19T05:07:17.796Z,19.59
2017-12-19T05:09:49.622Z,19.58
2017-12-19T05:12:18.592Z,19.58
2017-12-19T05:14:47.472Z,19.61
2017-12-19T05:17:16.376Z,19.59
2017-12-19T05:19:45.465Z,19.60
2017-12-19T05:22:14.365Z,19.59
2017-12-19T05:24:43.220Z,19.56
2017-12-19T05:27:11.963Z,19.55
2017-12-19T05:29:40.669Z,19.57
2017-12-19T05:32:09.730Z,19.56
2017-12-19T05:34:38.686Z,19.56
2017-12-19T05:37:12.040Z,19.56
2017-12-19T05:39:50.165Z,19.58
2017-12-19T05:42:19.880Z,19.53
2017-12-19T05:44:48.486Z,19.55
2017-12-19T05:47:17.391Z,19.54
2017-12-19T05:49:46.164Z,19.52
2017-12-19T05:52:14.866Z,19.52
2017-12-19T05:54:43.742Z,19.55
2017-12-19T05:57:12.544Z,19.54
2017-12-19T05:59:41.419Z,19.53
2017-12-19T06:02:10.119Z,19.53
2017-12-19T06:04:38.996Z,19.52
2017-12-19T06:07:07.709Z,19.52
2017-12-19T06:09:36.400Z,19.51
2017-12-19T06:12:05.456Z,19.53
2017-12-19T06:14:34.339Z,19.50
2017-12-19T06:17:02.956Z,19.54
2017-12-19T06:19:31.536Z,19.57
2017-12-19T06:22:00.428Z,19.56
2017-12-19T06:24:29.088Z,19.56
2017-12-19T06:26:57.699Z,19.55
2017-12-19T06:29:26.564Z,19.57
2017-12-19T06:31:55.148Z,19.56
2017-12-19T06:34:23.755Z,19.53
2017-12-19T06:36:52.687Z,19.57
2017-12-19T06:39:21.504Z,19.61
2017-12-19T06:41:50.223Z,19.63
2017-12-19T06:44:19.108Z,19.59
2017-12-19T06:46:48.088Z,19.60
2017-12-19T06:49:16.883Z,19.62
2017-12-19T06:51:45.634Z,19.60
2017-12-19T06:54:14.208Z,19.61
2017-12-19T06:56:42.800Z,19.61
2017-12-19T06:59:11.749Z,19.62
2017-12-19T07:01:40.424Z,19.61
2017-12-19T07:04:09.057Z,19.60
2017-12-19T07:06:37.594Z,19.57
2017-12-19T07:09:06.420Z,19.60
2017-12-19T07:11:36.588Z,19.63
2017-12-19T07:14:05.176Z,19.61
2017-12-19T07:16:33.936Z,19.64
2017-12-19T07:19:02.732Z,19.62
2017-12-19T07:21:31.455Z,19.62
2017-12-19T07:24:00.375Z,19.62
2017-12-19T07:26:29.073Z,19.59
2017-12-19T07:28:57.864Z,19.57
2017-12-19T07:31:26.636Z,19.57
2017-12-19T07:33:55.464Z,19.58
2017-12-19T07:36:24.199Z,19.58
2017-12-19T07:38:52.901Z,19.56
2017-12-19T07:41:21.544Z,19.54
2017-12-19T07:43:50.420Z,19.55
2017-12-19T07:46:18.989Z,19.52
2017-12-19T07:48:47.996Z,19.49
2017-12-19T07:51:16.952Z,19.45
2017-12-19T07:53:45.640Z,19.43
2017-12-19T07:56:14.328Z,19.39
2017-12-19T07:58:42.844Z,19.37
2017-12-19T08:01:11.636Z,19.32
2017-12-19T08:03:40.531Z,19.31
2017-12-19T08:06:09.292Z,19.29
2017-12-19T08:08:37.909Z,19.29
2017-12-19T08:11:06.796Z,19.30
2017-12-19T08:13:35.460Z,19.26
2017-12-19T08:16:04.044Z,19.24
2017-12-19T08:18:32.811Z,19.20
2017-12-19T08:21:01.398Z,19.20
2017-12-19T08:23:30.129Z,19.17
2017-12-19T08:25:58.784Z,19.15
2017-12-19T08:28:27.356Z,19.16
2017-12-19T08:30:55.904Z,19.12
2017-12-19T08:33:24.420Z,19.11
2017-12-19T08:35:53.245Z,19.10
2017-12-19T08:38:21.923Z,19.11
2017-12-19T08:40:50.668Z,19.14
2017-12-19T08:43:19.300Z,19.11
2017-12-19T08:45:48.040Z,19.05
2017-12-19T08:48:16.798Z,19.02
2017-12-19T08:50:45.749Z,18.99
2017-12-19T08:53:14.965Z,18.95
2017-12-19T08:55:43.480Z,18.93
2017-12-19T08:58:12.016Z,18.94
2017-12-19T09:00:40.552Z,18.90
2017-12-19T09:03:09.386Z,18.89
2017-12-19T09:05:38.140Z,18.89
2017-12-19T09:08:06.959Z,18.87
2017-12-19T09:10:35.476Z,18.90
2017-12-19T09:13:04.052Z,18.89
2017-12-19T09:15:32.764Z,18.88
2017-12-19T09:18:01.407Z,18.87
2017-12-19T09:20:30.297Z,18.86
2017-12-19T09:22:58.940Z,18.87
2017-12-19T09:25:27.582Z,18.83
2017-12-19T09:27:56.128Z,18.81
2017-12-19T09:30:24.833Z,18.80
2017-12-19T09:32:53.500Z,18.79
2017-12-19T09:35:22.214Z,18.78
2017-12-19T09:37:50.887Z,18.78
2017-12-19T09:40:19.447Z,18.78
2017-12-19T09:42:47.940Z,18.76
2017-12-19T09:45:16.597Z,18.76
2017-12-19T09:47:45.228Z,18.72
2017-12-19T09:50:14.124Z,18.69
2017-12-19T09:52:42.842Z,18.66
2017-12-19T09:55:11.388Z,18.68
2017-12-19T09:57:39.968Z,18.77
2017-12-19T10:00:08.556Z,18.80
2017-12-19T10:02:37.135Z,18.82
2017-12-19T10:05:05.844Z,18.86
2017-12-19T10:07:34.520Z,18.87
2017-12-19T10:10:03.200Z,18.89
2017-12-19T10:12:31.947Z,18.93
2017-12-19T10:15:00.735Z,18.93
2017-12-19T10:17:29.523Z,18.97
2017-12-19T10:19:58.310Z,18.98
2017-12-19T10:22:26.941Z,19.01
2017-12-19T10:24:55.675Z,19.04
2017-12-19T10:27:24.411Z,19.06
2017-12-19T10:29:53.304Z,19.10
2017-12-19T10:32:22.074Z,19.10
2017-12-19T10:34:50.688Z,19.12
2017-12-19T10:37:19.425Z,19.12
2017-12-19T10:39:48.192Z,19.12
2017-12-19T10:42:16.916Z,19.14
2017-12-19T10:44:45.616Z,19.15
2017-12-19T10:47:14.362Z,19.15
2017-12-19T10:49:43.168Z,19.13
2017-12-19T10:52:11.928Z,19.14
2017-12-19T10:54:40.532Z,19.18
2017-12-19T10:57:09.335Z,19.20
2017-12-19T10:59:37.976Z,19.19
2017-12-19T11:02:06.631Z,19.16
2017-12-19T11:04:35.572Z,19.20
2017-12-19T11:07:05.080Z,19.20
2017-12-19T11:09:33.721Z,19.21
2017-12-19T11:12:02.424Z,19.24
2017-12-19T11:14:31.020Z,19.20
2017-12-19T11:16:59.583Z,19.25
2017-12-19T11:19:28.212Z,19.25
2017-12-19T11:21:57.104Z,19.26
2017-12-19T11:24:26.062Z,19.26
2017-12-19T11:26:55.090Z,19.26
2017-12-19T11:29:23.812Z,19.25
2017-12-19T11:31:53.128Z,19.25
2017-12-19T11:34:22.048Z,19.30
2017-12-19T11:36:50.804Z,19.28
2017-12-19T11:39:19.433Z,19.29
2017-12-19T11:41:48.104Z,19.21
2017-12-19T11:44:16.783Z,19.20
2017-12-19T11:46:45.492Z,19.15
2017-12-19T11:49:14.292Z,19.14
2017-12-19T11:51:43.203Z,19.14
2017-12-19T11:54:11.901Z,19.11
2017-12-19T11:56:40.639Z,19.10
2017-12-19T11:59:09.465Z,19.10
2017-12-19T12:01:38.199Z,19.05
2017-12-19T12:04:07.035Z,19.02
2017-12-19T12:06:35.767Z,19.00
2017-12-19T12:09:05.021Z,18.95
2017-12-19T12:11:33.714Z,18.92
2017-12-19T12:14:02.371Z,18.91
2017-12-19T12:16:31.048Z,18.85
2017-12-19T12:18:59.764Z,18.83
2017-12-19T12:21:29.552Z,18.82
2017-12-19T12:23:58.164Z,18.82
2017-12-19T12:26:27.053Z,18.83
2017-12-19T12:28:55.737Z,18.85
2017-12-19T12:31:24.545Z,18.78
2017-12-19T12:33:53.128Z,18.81
2017-12-19T12:36:21.760Z,18.86
2017-12-19T12:38:50.901Z,18.89
2017-12-19T12:41:19.573Z,18.93
2017-12-19T12:43:48.276Z,18.91
2017-12-19T12:46:17.030Z,18.90
2017-12-19T12:48:45.805Z,18.97
2017-12-19T12:51:14.379Z,18.97
2017-12-19T12:53:43.013Z,19.05
2017-12-19T12:56:11.880Z,19.06
2017-12-19T12:58:43.500Z,19.10
2017-12-19T13:01:12.189Z,19.11
2017-12-19T13:03:41.084Z,19.14
2017-12-19T13:06:10.130Z,19.13
2017-12-19T13:08:38.816Z,19.15
2017-12-19T13:11:07.679Z,19.16
2017-12-19T13:13:36.639Z,19.16
2017-12-19T13:16:05.619Z,19.18
2017-12-19T13:18:34.107Z,19.18
2017-12-19T13:21:02.680Z,19.17
2017-12-19T13:23:31.302Z,19.20
2017-12-19T13:25:59.845Z,19.20
2017-12-19T13:28:28.460Z,19.20
2017-12-19T13:30:57.011Z,19.20
2017-12-19T13:33:25.703Z,19.21
2017-12-19T13:35:54.402Z,19.22
2017-12-19T13:38:23.025Z,19.21
2017-12-19T13:40:51.912Z,19.22
2017-12-19T13:43:20.620Z,19.24
2017-12-19T13:45:49.484Z,19.23
2017-12-19T13:48:18.120Z,19.24
2017-12-19T13:50:46.704Z,19.25
2017-12-19T13:53:15.500Z,19.25
2017-12-19T13:55:44.608Z,19.26
2017-12-19T13:58:13.320Z,19.26
2017-12-19T14:00:41.824Z,19.26
2017-12-19T14:03:10.483Z,19.27
2017-12-19T14:05:39.233Z,19.25
2017-12-19T14:08:08.042Z,19.25
2017-12-19T14:10:36.808Z,19.26
2017-12-19T14:13:05.423Z,19.28
2017-12-19T14:15:34.113Z,19.29
2017-12-19T14:18:02.598Z,19.30
2017-12-19T14:20:31.485Z,19.27
2017-12-19T14:23:00.237Z,19.29
2017-12-19T14:25:28.916Z,19.31
2017-12-19T14:27:57.732Z,19.29
2017-12-19T14:30:26.252Z,19.29
2017-12-19T14:32:55.076Z,19.29
2017-12-19T14:35:23.655Z,19.29
2017-12-19T14:37:52.651Z,19.29
2017-12-19T14:40:21.165Z,19.30
2017-12-19T14:42:50.034Z,19.31
2017-12-19T14:45:18.800Z,19.32
2017-12-19T14:47:47.607Z,19.32
2017-12-19T14:50:16.332Z,19.32
2017-12-19T14:52:45.052Z,19.32
2017-12-19T14:55:13.900Z,19.34
2017-12-19T14:57:42.769Z,19.33
2017-12-19T15:00:11.556Z,19.33
2017-12-19T15:02:40.203Z,19.34
2017-12-19T15:05:08.984Z,19.34
2017-12-19T15:07:37.789Z,19.34
2017-12-19T15:10:06.477Z,19.33
2017-12-19T15:12:35.307Z,19.35
2017-12-19T15:15:06.809Z,19.37
2017-12-19T15:17:35.948Z,19.37
2017-12-19T15:20:04.556Z,19.39
2017-12-19T15:22:33.316Z,19.37
2017-12-19T15:25:01.980Z,19.42
2017-12-19T15:27:30.764Z,19.38
2017-12-19T15:29:59.378Z,19.39
2017-12-19T15:32:28.358Z,19.39
2017-12-19T15:34:57.156Z,19.40
2017-12-19T15:37:25.929Z,19.40
2017-12-19T15:39:54.552Z,19.39
2017-12-19T15:42:23.256Z,19.39
2017-12-19T15:44:51.900Z,19.38
2017-12-19T15:47:21.004Z,19.41
2017-12-19T15:49:49.927Z,19.40
2017-12-19T15:52:18.992Z,19.41
2017-12-19T15:54:47.864Z,19.42
2017-12-19T15:57:16.776Z,19.45
2017-12-19T15:59:45.444Z,19.42
2017-12-19T16:02:14.352Z,19.43
2017-12-19T16:04:43.330Z,19.43
2017-12-19T16:07:12.135Z,19.43
2017-12-19T16:09:40.804Z,19.44
2017-12-19T16:12:09.344Z,19.45
2017-12-19T16:14:38.148Z,19.45
2017-12-19T16:17:06.741Z,19.45
2017-12-19T16:19:35.564Z,19.44
2017-12-19T16:22:04.460Z,19.44
2017-12-19T16:24:33.308Z,19.46
2017-12-19T16:27:02.040Z,19.45
2017-12-19T16:29:30.696Z,19.44
2017-12-19T16:31:59.253Z,19.43
2017-12-19T16:34:27.904Z,19.47
2017-12-19T16:36:56.648Z,19.51
2017-12-19T16:39:25.228Z,19.48
2017-12-19T16:41:54.000Z,19.48
2017-12-19T16:44:22.808Z,19.47
2017-12-19T16:46:51.362Z,19.48
2017-12-19T16:49:20.006Z,19.47
2017-12-19T16:51:48.889Z,19.46
2017-12-19T16:54:17.557Z,19.48
2017-12-19T16:56:46.118Z,19.48
2017-12-19T16:59:14.725Z,19.47
2017-12-19T17:01:43.488Z,19.52
2017-12-19T17:04:12.000Z,19.50
2017-12-19T17:06:42.491Z,19.46
2017-12-19T17:09:11.045Z,19.48
2017-12-19T17:11:39.696Z,19.49
2017-12-19T17:14:08.288Z,19.51
2017-12-19T17:16:37.025Z,19.54
2017-12-19T17:19:05.667Z,19.50
2017-12-19T17:21:34.413Z,19.46
2017-12-19T17:24:03.024Z,19.43
2017-12-19T17:26:32.049Z,19.40
2017-12-19T17:29:04.742Z,19.43
2017-12-19T17:31:34.283Z,19.44
2017-12-19T17:34:03.052Z,19.44
2017-12-19T17:36:31.637Z,19.47
2017-12-19T17:39:00.248Z,19.50
2017-12-19T17:41:29.157Z,19.49
2017-12-19T17:43:57.848Z,19.50
2017-12-19T17:46:26.551Z,19.51
2017-12-19T17:48:55.216Z,19.50
2017-12-19T17:51:24.101Z,19.52
2017-12-19T17:53:52.788Z,19.49
2017-12-19T17:56:21.680Z,19.51
2017-12-19T17:58:50.390Z,19.50
2017-12-19T18:01:19.112Z,19.51
2017-12-19T18:03:54.562Z,19.52
2017-12-19T18:06:23.404Z,19.55
2017-12-19T18:08:52.466Z,19.55
2017-12-19T18:11:21.241Z,19.51
2017-12-19T18:13:50.025Z,19.50
2017-12-19T18:16:18.600Z,19.51
2017-12-19T18:18:47.313Z,19.54
2017-12-19T18:21:16.112Z,19.54
2017-12-19T18:23:44.764Z,19.59
2017-12-19T18:26:14.462Z,19.60
2017-12-19T18:28:44.255Z,19.60
2017-12-19T18:31:13.115Z,19.57
2017-12-19T18:33:41.764Z,19.61
2017-12-19T18:36:12.607Z,19.60
2017-12-19T18:38:46.262Z,19.61
2017-12-19T18:41:15.792Z,19.58
2017-12-19T18:43:44.519Z,19.60
2017-12-19T18:46:13.422Z,19.60
2017-12-19T18:48:42.109Z,19.59
2017-12-19T18:51:10.984Z,19.61
2017-12-19T18:53:39.852Z,19.62
2017-12-19T18:56:08.603Z,19.63
2017-12-19T18:58:37.428Z,19.61
2017-12-19T19:01:06.177Z,19.62
2017-12-19T19:03:35.212Z,19.61
2017-12-19T19:06:03.948Z,19.63
2017-12-19T19:08:32.610Z,19.60
2017-12-19T19:11:01.423Z,19.63
2017-12-19T19:13:30.222Z,19.66
2017-12-19T19:15:58.965Z,19.64
2017-12-19T19:18:27.554Z,19.65
2017-12-19T19:20:56.479Z,19.65
2017-12-19T19:23:25.205Z,19.67
2017-12-19T19:25:53.818Z,19.66
2017-12-19T19:28:22.772Z,19.66
2017-12-19T19:30:51.562Z,19.66
2017-12-19T19:33:20.264Z,19.68
2017-12-19T19:35:49.072Z,19.67
2017-12-19T19:38:17.764Z,19.68
2017-12-19T19:40:46.403Z,19.69
2017-12-19T19:43:14.977Z,19.66
2017-12-19T19:45:43.592Z,19.72
2017-12-19T19:48:12.381Z,19.68
2017-12-19T19:50:40.952Z,19.70
2017-12-19T19:53:09.658Z,19.68
2017-12-19T19:55:38.723Z,19.69
2017-12-19T19:58:07.554Z,19.69
2017-12-19T20:00:36.312Z,19.70
2017-12-19T20:03:04.993Z,19.72
2017-12-19T20:05:33.852Z,19.77
2017-12-19T20:08:02.691Z,19.82
2017-12-19T20:10:31.200Z,19.83
2017-12-19T20:12:59.997Z,19.86
2017-12-19T20:15:28.774Z,19.91
2017-12-19T20:18:00.640Z,20.02
2017-12-19T20:20:33.405Z,20.14
2017-12-19T20:23:02.165Z,20.31
2017-12-19T20:25:30.716Z,20.43
2017-12-19T20:27:59.524Z,20.49
2017-12-19T20:30:28.220Z,20.57
2017-12-19T20:32:57.083Z,20.64
2017-12-19T20:35:26.204Z,20.77
2017-12-19T20:37:54.941Z,20.96
2017-12-19T20:40:23.680Z,21.04
2017-12-19T20:42:52.365Z,21.14
2017-12-19T20:45:21.029Z,21.24
2017-12-19T20:47:49.652Z,21.28
2017-12-19T20:50:18.544Z,21.24
2017-12-19T20:52:47.241Z,21.35
2017-12-19T20:55:16.124Z,21.28
2017-12-19T20:57:45.040Z,21.09
2017-12-19T21:00:13.962Z,21.11
2017-12-19T21:02:42.994Z,21.14
2017-12-19T21:05:11.509Z,21.10
2017-12-19T21:07:40.332Z,21.10
2017-12-19T21:10:09.202Z,21.07
2017-12-19T21:12:39.636Z,21.06
2017-12-19T21:15:08.648Z,21.04
2017-12-19T21:17:37.724Z,20.98
2017-12-19T21:20:06.452Z,20.94
2017-12-19T21:22:35.089Z,21.00
2017-12-19T21:25:03.900Z,20.94
2017-12-19T21:27:32.688Z,20.93
2017-12-19T21:30:01.825Z,20.90
2017-12-19T21:32:34.800Z,20.88
2017-12-19T21:35:04.034Z,20.87
2017-12-19T21:37:32.848Z,20.86
2017-12-19T21:40:02.355Z,20.85
2017-12-19T21:42:32.423Z,20.83
2017-12-19T21:45:03.642Z,20.81
2017-12-19T21:47:32.492Z,20.76
2017-12-19T21:50:01.404Z,20.73
2017-12-19T21:52:30.306Z,20.74
2017-12-19T21:54:59.088Z,20.73
2017-12-19T21:57:28.080Z,20.74
2017-12-19T21:59:56.856Z,20.72
2017-12-19T22:02:25.688Z,20.69
2017-12-19T22:04:55.979Z,20.70
2017-12-19T22:07:27.548Z,20.69
2017-12-19T22:09:56.211Z,20.63
2017-12-19T22:12:26.938Z,20.66
2017-12-19T22:14:55.464Z,20.65
2017-12-19T22:17:24.436Z,20.67
2017-12-19T22:19:53.470Z,20.62
2017-12-19T22:22:22.447Z,20.63
2017-12-19T22:24:51.757Z,20.63
2017-12-19T22:27:20.649Z,20.60
2017-12-19T22:29:49.553Z,20.59
2017-12-19T22:32:18.305Z,20.52
2017-12-19T22:34:46.888Z,20.36
2017-12-19T22:37:16.166Z,20.29
2017-12-19T22:39:44.905Z,20.27
2017-12-19T22:42:13.644Z,20.21
2017-12-19T22:44:43.820Z,20.16
2017-12-19T22:47:13.695Z,20.13
2017-12-19T22:49:42.339Z,20.12
2017-12-19T22:52:10.980Z,20.07
2017-12-19T22:54:39.579Z,20.02
2017-12-19T22:57:08.516Z,19.98
2017-12-19T22:59:36.989Z,19.93
2017-12-19T23:02:05.712Z,19.88
2017-12-19T23:04:35.362Z,19.86
2017-12-19T23:07:04.155Z,19.80
2017-12-19T23:09:34.587Z,19.78
2017-12-19T23:12:04.646Z,19.74
2017-12-19T23:14:33.332Z,19.74
2017-12-19T23:17:02.052Z,19.71
2017-12-19T23:19:30.888Z,19.67
2017-12-19T23:21:59.429Z,19.63
2017-12-19T23:24:28.097Z,19.60
2017-12-19T23:26:56.832Z,19.55
2017-12-19T23:29:25.861Z,19.50
2017-12-19T23:31:54.370Z,19.47
2017-12-19T23:34:27.003Z,19.43
2017-12-19T23:36:56.319Z,19.40
2017-12-19T23:39:25.328Z,19.39
2017-12-19T23:41:54.218Z,19.40
2017-12-19T23:44:22.880Z,19.32
2017-12-19T23:46:51.416Z,19.35
2017-12-19T23:49:20.080Z,19.34
2017-12-19T23:51:48.809Z,19.33
2017-12-19T23:54:17.612Z,19.29
2017-12-19T23:56:46.360Z,19.29
2017-12-19T23:59:15.184Z,19.31
